sensor_id;sensor_type;location;lat;lon;timestamp;P1;durP1;ratioP1;P2;durP2;ratioP2
5904;SDS011;2978;42.012;24.880;2023-03-13T00:01:58;3.70;;;2.57;;
5904;SDS011;2978;42.012;24.880;2023-03-13T00:04:25;2.70;;;2.40;;
5904;SDS011;2978;42.012;24.880;2023-03-13T00:06:50;3.43;;;2.77;;
5904;SDS011;2978;42.012;24.880;2023-03-13T00:09:16;5.17;;;2.70;;
5904;SDS011;2978;42.012;24.880;2023-03-13T00:11:42;3.07;;;2.30;;
5904;SDS011;2978;42.012;24.880;2023-03-13T00:14:09;4.70;;;2.03;;
5904;SDS011;2978;42.012;24.880;2023-03-13T00:16:35;2.90;;;1.97;;
5904;SDS011;2978;42.012;24.880;2023-03-13T00:19:01;2.13;;;1.93;;
5904;SDS011;2978;42.012;24.880;2023-03-13T00:21:28;4.07;;;2.13;;
5904;SDS011;2978;42.012;24.880;2023-03-13T00:23:54;2.17;;;1.77;;
5904;SDS011;2978;42.012;24.880;2023-03-13T00:26:21;1.77;;;1.67;;
5904;SDS011;2978;42.012;24.880;2023-03-13T00:28:48;1.80;;;1.70;;
5904;SDS011;2978;42.012;24.880;2023-03-13T00:33:42;3.23;;;2.10;;
5904;SDS011;2978;42.012;24.880;2023-03-13T00:36:11;2.20;;;1.90;;
5904;SDS011;2978;42.012;24.880;2023-03-13T00:38:38;1.47;;;1.37;;
5904;SDS011;2978;42.012;24.880;2023-03-13T00:41:08;1.60;;;1.50;;
5904;SDS011;2978;42.012;24.880;2023-03-13T00:43:53;3.47;;;1.60;;
5904;SDS011;2978;42.012;24.880;2023-03-13T00:46:20;2.60;;;1.70;;
5904;SDS011;2978;42.012;24.880;2023-03-13T00:48:47;1.90;;;1.70;;
5904;SDS011;2978;42.012;24.880;2023-03-13T00:51:14;1.60;;;1.50;;
5904;SDS011;2978;42.012;24.880;2023-03-13T00:53:44;1.57;;;1.33;;
5904;SDS011;2978;42.012;24.880;2023-03-13T00:56:17;1.70;;;1.60;;
5904;SDS011;2978;42.012;24.880;2023-03-13T00:58:44;1.67;;;1.40;;
5904;SDS011;2978;42.012;24.880;2023-03-13T01:03:41;4.97;;;1.77;;
5904;SDS011;2978;42.012;24.880;2023-03-13T01:06:10;1.60;;;1.40;;
5904;SDS011;2978;42.012;24.880;2023-03-13T01:08:37;1.70;;;1.50;;
5904;SDS011;2978;42.012;24.880;2023-03-13T01:11:07;1.80;;;1.67;;
5904;SDS011;2978;42.012;24.880;2023-03-13T01:13:37;1.37;;;1.27;;
5904;SDS011;2978;42.012;24.880;2023-03-13T01:18:29;2.20;;;1.90;;
5904;SDS011;2978;42.012;24.880;2023-03-13T01:20:55;2.03;;;1.40;;
5904;SDS011;2978;42.012;24.880;2023-03-13T01:23:21;1.53;;;1.43;;
5904;SDS011;2978;42.012;24.880;2023-03-13T01:25:46;2.20;;;1.80;;
5904;SDS011;2978;42.012;24.880;2023-03-13T01:28:11;1.77;;;1.67;;
5904;SDS011;2978;42.012;24.880;2023-03-13T01:30:37;2.40;;;1.77;;
5904;SDS011;2978;42.012;24.880;2023-03-13T01:33:02;2.40;;;1.83;;
5904;SDS011;2978;42.012;24.880;2023-03-13T01:35:28;2.10;;;1.87;;
5904;SDS011;2978;42.012;24.880;2023-03-13T01:37:53;2.13;;;1.93;;
5904;SDS011;2978;42.012;24.880;2023-03-13T01:40:18;2.00;;;1.60;;
5904;SDS011;2978;42.012;24.880;2023-03-13T01:42:48;3.77;;;2.30;;
5904;SDS011;2978;42.012;24.880;2023-03-13T01:48:14;4.00;;;2.27;;
5904;SDS011;2978;42.012;24.880;2023-03-13T01:50:40;2.07;;;1.90;;
5904;SDS011;2978;42.012;24.880;2023-03-13T01:53:05;2.47;;;2.27;;
5904;SDS011;2978;42.012;24.880;2023-03-13T01:55:31;5.57;;;2.43;;
5904;SDS011;2978;42.012;24.880;2023-03-13T01:57:57;1.60;;;1.50;;
5904;SDS011;2978;42.012;24.880;2023-03-13T02:00:25;3.00;;;1.60;;
5904;SDS011;2978;42.012;24.880;2023-03-13T02:02:54;3.70;;;2.07;;
5904;SDS011;2978;42.012;24.880;2023-03-13T02:05:25;3.20;;;1.80;;
5904;SDS011;2978;42.012;24.880;2023-03-13T02:07:57;3.30;;;1.50;;
5904;SDS011;2978;42.012;24.880;2023-03-13T02:10:26;2.30;;;1.40;;
5904;SDS011;2978;42.012;24.880;2023-03-13T02:12:55;1.60;;;1.50;;
5904;SDS011;2978;42.012;24.880;2023-03-13T02:15:23;1.90;;;1.80;;
5904;SDS011;2978;42.012;24.880;2023-03-13T02:17:51;5.43;;;2.07;;
5904;SDS011;2978;42.012;24.880;2023-03-13T02:20:19;3.10;;;1.60;;
5904;SDS011;2978;42.012;24.880;2023-03-13T02:23:02;1.50;;;1.40;;
5904;SDS011;2978;42.012;24.880;2023-03-13T02:28:06;2.10;;;1.50;;
5904;SDS011;2978;42.012;24.880;2023-03-13T02:30:36;1.90;;;1.47;;
5904;SDS011;2978;42.012;24.880;2023-03-13T02:33:02;3.87;;;1.90;;
5904;SDS011;2978;42.012;24.880;2023-03-13T02:35:28;2.00;;;1.73;;
5904;SDS011;2978;42.012;24.880;2023-03-13T02:37:56;2.00;;;1.70;;
5904;SDS011;2978;42.012;24.880;2023-03-13T02:40:30;3.07;;;1.50;;
5904;SDS011;2978;42.012;24.880;2023-03-13T02:43:00;1.77;;;1.50;;
5904;SDS011;2978;42.012;24.880;2023-03-13T02:45:27;1.67;;;1.33;;
5904;SDS011;2978;42.012;24.880;2023-03-13T02:47:52;2.33;;;1.67;;
5904;SDS011;2978;42.012;24.880;2023-03-13T02:50:18;2.57;;;1.53;;
5904;SDS011;2978;42.012;24.880;2023-03-13T02:52:47;1.63;;;1.50;;
5904;SDS011;2978;42.012;24.880;2023-03-13T02:55:20;2.03;;;1.83;;
5904;SDS011;2978;42.012;24.880;2023-03-13T02:57:52;2.27;;;1.77;;
5904;SDS011;2978;42.012;24.880;2023-03-13T03:00:17;2.00;;;1.80;;
5904;SDS011;2978;42.012;24.880;2023-03-13T03:02:44;4.63;;;3.67;;
5904;SDS011;2978;42.012;24.880;2023-03-13T03:05:10;2.93;;;2.63;;
5904;SDS011;2978;42.012;24.880;2023-03-13T03:07:36;5.83;;;3.40;;
5904;SDS011;2978;42.012;24.880;2023-03-13T03:10:02;4.20;;;2.50;;
5904;SDS011;2978;42.012;24.880;2023-03-13T03:12:28;6.80;;;2.80;;
5904;SDS011;2978;42.012;24.880;2023-03-13T03:14:54;3.53;;;2.33;;
5904;SDS011;2978;42.012;24.880;2023-03-13T03:17:19;3.67;;;2.93;;
5904;SDS011;2978;42.012;24.880;2023-03-13T03:19:45;5.30;;;3.20;;
5904;SDS011;2978;42.012;24.880;2023-03-13T03:22:10;5.77;;;3.47;;
5904;SDS011;2978;42.012;24.880;2023-03-13T03:24:35;7.50;;;2.90;;
5904;SDS011;2978;42.012;24.880;2023-03-13T03:27:01;6.03;;;3.50;;
5904;SDS011;2978;42.012;24.880;2023-03-13T03:29:26;6.30;;;3.90;;
5904;SDS011;2978;42.012;24.880;2023-03-13T03:31:52;5.93;;;3.50;;
5904;SDS011;2978;42.012;24.880;2023-03-13T03:34:18;5.90;;;3.37;;
5904;SDS011;2978;42.012;24.880;2023-03-13T03:36:44;5.73;;;3.20;;
5904;SDS011;2978;42.012;24.880;2023-03-13T03:39:09;5.87;;;3.30;;
5904;SDS011;2978;42.012;24.880;2023-03-13T03:41:34;3.37;;;2.60;;
5904;SDS011;2978;42.012;24.880;2023-03-13T03:44:01;3.63;;;2.77;;
5904;SDS011;2978;42.012;24.880;2023-03-13T03:46:27;5.00;;;2.83;;
5904;SDS011;2978;42.012;24.880;2023-03-13T03:48:53;10.77;;;3.23;;
5904;SDS011;2978;42.012;24.880;2023-03-13T03:51:19;3.87;;;3.27;;
5904;SDS011;2978;42.012;24.880;2023-03-13T03:53:44;4.03;;;3.47;;
5904;SDS011;2978;42.012;24.880;2023-03-13T03:56:10;5.73;;;3.57;;
5904;SDS011;2978;42.012;24.880;2023-03-13T03:58:35;3.50;;;3.20;;
5904;SDS011;2978;42.012;24.880;2023-03-13T04:01:00;12.10;;;3.70;;
5904;SDS011;2978;42.012;24.880;2023-03-13T04:03:26;4.40;;;4.00;;
5904;SDS011;2978;42.012;24.880;2023-03-13T04:05:51;5.13;;;3.80;;
5904;SDS011;2978;42.012;24.880;2023-03-13T04:08:17;6.60;;;4.77;;
5904;SDS011;2978;42.012;24.880;2023-03-13T04:10:43;9.20;;;5.00;;
5904;SDS011;2978;42.012;24.880;2023-03-13T04:13:08;6.27;;;3.63;;
5904;SDS011;2978;42.012;24.880;2023-03-13T04:15:33;3.30;;;2.60;;
5904;SDS011;2978;42.012;24.880;2023-03-13T04:17:59;4.33;;;2.30;;
5904;SDS011;2978;42.012;24.880;2023-03-13T04:20:24;7.73;;;3.60;;
5904;SDS011;2978;42.012;24.880;2023-03-13T04:22:50;5.03;;;2.53;;
5904;SDS011;2978;42.012;24.880;2023-03-13T04:25:15;5.97;;;2.20;;
5904;SDS011;2978;42.012;24.880;2023-03-13T04:27:41;10.37;;;2.10;;
5904;SDS011;2978;42.012;24.880;2023-03-13T04:30:07;3.00;;;2.43;;
5904;SDS011;2978;42.012;24.880;2023-03-13T04:32:33;2.40;;;2.20;;
5904;SDS011;2978;42.012;24.880;2023-03-13T04:34:59;8.40;;;2.63;;
5904;SDS011;2978;42.012;24.880;2023-03-13T04:37:24;4.33;;;3.00;;
5904;SDS011;2978;42.012;24.880;2023-03-13T04:39:50;3.57;;;2.67;;
5904;SDS011;2978;42.012;24.880;2023-03-13T04:42:15;3.40;;;3.10;;
5904;SDS011;2978;42.012;24.880;2023-03-13T04:44:41;10.13;;;2.93;;
5904;SDS011;2978;42.012;24.880;2023-03-13T04:47:06;4.87;;;2.63;;
5904;SDS011;2978;42.012;24.880;2023-03-13T04:49:31;6.23;;;2.20;;
5904;SDS011;2978;42.012;24.880;2023-03-13T04:51:57;6.20;;;2.30;;
5904;SDS011;2978;42.012;24.880;2023-03-13T04:54:23;5.87;;;2.60;;
5904;SDS011;2978;42.012;24.880;2023-03-13T04:56:48;3.00;;;2.07;;
5904;SDS011;2978;42.012;24.880;2023-03-13T04:59:14;3.97;;;2.00;;
5904;SDS011;2978;42.012;24.880;2023-03-13T05:01:40;10.07;;;2.70;;
5904;SDS011;2978;42.012;24.880;2023-03-13T05:04:06;4.27;;;2.60;;
5904;SDS011;2978;42.012;24.880;2023-03-13T05:06:32;6.13;;;2.87;;
5904;SDS011;2978;42.012;24.880;2023-03-13T05:08:57;11.30;;;2.90;;
5904;SDS011;2978;42.012;24.880;2023-03-13T05:11:23;6.43;;;3.00;;
5904;SDS011;2978;42.012;24.880;2023-03-13T05:13:49;5.80;;;1.90;;
5904;SDS011;2978;42.012;24.880;2023-03-13T05:16:14;8.53;;;3.20;;
5904;SDS011;2978;42.012;24.880;2023-03-13T05:18:40;2.27;;;2.07;;
5904;SDS011;2978;42.012;24.880;2023-03-13T05:21:05;5.43;;;2.63;;
5904;SDS011;2978;42.012;24.880;2023-03-13T05:23:31;2.93;;;2.50;;
5904;SDS011;2978;42.012;24.880;2023-03-13T05:25:56;4.17;;;2.80;;
5904;SDS011;2978;42.012;24.880;2023-03-13T05:28:22;6.10;;;3.10;;
5904;SDS011;2978;42.012;24.880;2023-03-13T05:30:47;2.33;;;2.13;;
5904;SDS011;2978;42.012;24.880;2023-03-13T05:33:13;7.63;;;3.27;;
5904;SDS011;2978;42.012;24.880;2023-03-13T05:35:38;8.87;;;2.93;;
5904;SDS011;2978;42.012;24.880;2023-03-13T05:38:04;7.93;;;3.10;;
5904;SDS011;2978;42.012;24.880;2023-03-13T05:40:29;6.60;;;2.77;;
5904;SDS011;2978;42.012;24.880;2023-03-13T05:42:55;2.70;;;2.17;;
5904;SDS011;2978;42.012;24.880;2023-03-13T05:45:21;4.30;;;2.57;;
5904;SDS011;2978;42.012;24.880;2023-03-13T05:47:47;4.30;;;2.20;;
5904;SDS011;2978;42.012;24.880;2023-03-13T05:50:12;6.23;;;2.80;;
5904;SDS011;2978;42.012;24.880;2023-03-13T05:52:37;3.80;;;2.00;;
5904;SDS011;2978;42.012;24.880;2023-03-13T05:55:03;11.67;;;5.33;;
5904;SDS011;2978;42.012;24.880;2023-03-13T05:57:29;4.17;;;2.80;;
5904;SDS011;2978;42.012;24.880;2023-03-13T05:59:54;5.50;;;2.50;;
5904;SDS011;2978;42.012;24.880;2023-03-13T06:02:19;5.20;;;2.47;;
5904;SDS011;2978;42.012;24.880;2023-03-13T06:04:46;3.63;;;2.90;;
5904;SDS011;2978;42.012;24.880;2023-03-13T06:07:11;3.00;;;1.90;;
5904;SDS011;2978;42.012;24.880;2023-03-13T06:09:37;12.93;;;7.00;;
5904;SDS011;2978;42.012;24.880;2023-03-13T06:12:02;4.50;;;3.60;;
5904;SDS011;2978;42.012;24.880;2023-03-13T06:14:31;5.27;;;2.43;;
5904;SDS011;2978;42.012;24.880;2023-03-13T06:17:03;23.27;;;5.63;;
5904;SDS011;2978;42.012;24.880;2023-03-13T06:19:29;11.40;;;5.50;;
5904;SDS011;2978;42.012;24.880;2023-03-13T06:21:55;6.63;;;3.97;;
5904;SDS011;2978;42.012;24.880;2023-03-13T06:24:20;9.30;;;3.43;;
5904;SDS011;2978;42.012;24.880;2023-03-13T06:26:48;3.70;;;3.00;;
5904;SDS011;2978;42.012;24.880;2023-03-13T06:29:14;5.40;;;3.97;;
5904;SDS011;2978;42.012;24.880;2023-03-13T06:31:39;10.00;;;4.33;;
5904;SDS011;2978;42.012;24.880;2023-03-13T06:34:05;4.63;;;3.47;;
5904;SDS011;2978;42.012;24.880;2023-03-13T06:36:30;3.27;;;2.97;;
5904;SDS011;2978;42.012;24.880;2023-03-13T06:41:43;9.60;;;3.87;;
5904;SDS011;2978;42.012;24.880;2023-03-13T06:44:08;12.93;;;8.03;;
5904;SDS011;2978;42.012;24.880;2023-03-13T06:46:34;5.50;;;3.60;;
5904;SDS011;2978;42.012;24.880;2023-03-13T06:48:59;5.43;;;3.00;;
5904;SDS011;2978;42.012;24.880;2023-03-13T06:51:28;4.90;;;2.90;;
5904;SDS011;2978;42.012;24.880;2023-03-13T06:53:54;10.10;;;2.97;;
5904;SDS011;2978;42.012;24.880;2023-03-13T06:56:19;10.73;;;2.90;;
5904;SDS011;2978;42.012;24.880;2023-03-13T06:58:46;4.87;;;3.60;;
5904;SDS011;2978;42.012;24.880;2023-03-13T07:01:13;3.60;;;2.60;;
5904;SDS011;2978;42.012;24.880;2023-03-13T07:03:40;5.03;;;3.77;;
5904;SDS011;2978;42.012;24.880;2023-03-13T07:06:06;4.90;;;4.00;;
5904;SDS011;2978;42.012;24.880;2023-03-13T07:08:32;5.27;;;3.10;;
5904;SDS011;2978;42.012;24.880;2023-03-13T07:10:59;4.37;;;2.97;;
5904;SDS011;2978;42.012;24.880;2023-03-13T07:13:28;5.53;;;3.33;;
5904;SDS011;2978;42.012;24.880;2023-03-13T07:15:54;9.03;;;5.70;;
5904;SDS011;2978;42.012;24.880;2023-03-13T07:18:20;15.33;;;5.83;;
5904;SDS011;2978;42.012;24.880;2023-03-13T07:20:56;7.07;;;3.60;;
5904;SDS011;2978;42.012;24.880;2023-03-13T07:26:45;5.33;;;3.83;;
5904;SDS011;2978;42.012;24.880;2023-03-13T07:29:10;7.63;;;3.60;;
5904;SDS011;2978;42.012;24.880;2023-03-13T07:31:36;26.70;;;4.70;;
5904;SDS011;2978;42.012;24.880;2023-03-13T07:34:03;9.03;;;4.17;;
5904;SDS011;2978;42.012;24.880;2023-03-13T07:36:28;5.77;;;3.73;;
5904;SDS011;2978;42.012;24.880;2023-03-13T07:38:54;10.73;;;4.27;;
5904;SDS011;2978;42.012;24.880;2023-03-13T07:51:24;20.00;;;7.27;;
5904;SDS011;2978;42.012;24.880;2023-03-13T07:53:51;9.40;;;4.90;;
5904;SDS011;2978;42.012;24.880;2023-03-13T07:56:18;10.50;;;4.47;;
5904;SDS011;2978;42.012;24.880;2023-03-13T07:58:45;12.20;;;4.60;;
5904;SDS011;2978;42.012;24.880;2023-03-13T08:01:13;9.40;;;5.13;;
5904;SDS011;2978;42.012;24.880;2023-03-13T08:03:41;6.40;;;4.60;;
5904;SDS011;2978;42.012;24.880;2023-03-13T08:06:09;5.80;;;4.20;;
5904;SDS011;2978;42.012;24.880;2023-03-13T08:08:38;5.97;;;3.97;;
5904;SDS011;2978;42.012;24.880;2023-03-13T08:11:06;5.57;;;3.57;;
5904;SDS011;2978;42.012;24.880;2023-03-13T08:13:33;11.23;;;4.10;;
5904;SDS011;2978;42.012;24.880;2023-03-13T08:18:33;5.87;;;4.30;;
5904;SDS011;2978;42.012;24.880;2023-03-13T08:21:03;7.20;;;4.23;;
5904;SDS011;2978;42.012;24.880;2023-03-13T08:23:30;6.17;;;3.60;;
5904;SDS011;2978;42.012;24.880;2023-03-13T08:26:00;6.60;;;4.13;;
5904;SDS011;2978;42.012;24.880;2023-03-13T08:28:30;9.50;;;4.87;;
5904;SDS011;2978;42.012;24.880;2023-03-13T08:30:56;6.33;;;4.00;;
5904;SDS011;2978;42.012;24.880;2023-03-13T08:33:21;5.93;;;3.93;;
5904;SDS011;2978;42.012;24.880;2023-03-13T08:35:47;10.90;;;5.30;;
5904;SDS011;2978;42.012;24.880;2023-03-13T08:38:12;7.00;;;4.57;;
5904;SDS011;2978;42.012;24.880;2023-03-13T08:40:38;5.70;;;4.27;;
5904;SDS011;2978;42.012;24.880;2023-03-13T08:43:03;3.83;;;3.50;;
5904;SDS011;2978;42.012;24.880;2023-03-13T08:45:28;4.40;;;4.00;;
5904;SDS011;2978;42.012;24.880;2023-03-13T08:47:54;8.50;;;4.60;;
5904;SDS011;2978;42.012;24.880;2023-03-13T08:50:19;6.60;;;4.77;;
5904;SDS011;2978;42.012;24.880;2023-03-13T08:52:45;7.37;;;3.73;;
5904;SDS011;2978;42.012;24.880;2023-03-13T08:55:10;8.57;;;4.07;;
5904;SDS011;2978;42.012;24.880;2023-03-13T08:57:36;16.70;;;4.03;;
5904;SDS011;2978;42.012;24.880;2023-03-13T09:00:01;4.23;;;3.73;;
5904;SDS011;2978;42.012;24.880;2023-03-13T09:02:29;6.00;;;4.10;;
5904;SDS011;2978;42.012;24.880;2023-03-13T09:04:55;6.67;;;4.13;;
5904;SDS011;2978;42.012;24.880;2023-03-13T09:07:20;7.13;;;5.13;;
5904;SDS011;2978;42.012;24.880;2023-03-13T09:09:46;6.73;;;5.33;;
5904;SDS011;2978;42.012;24.880;2023-03-13T09:12:11;3.50;;;2.90;;
5904;SDS011;2978;42.012;24.880;2023-03-13T09:14:36;5.37;;;4.50;;
5904;SDS011;2978;42.012;24.880;2023-03-13T09:17:02;5.40;;;3.70;;
5904;SDS011;2978;42.012;24.880;2023-03-13T09:19:28;4.30;;;3.50;;
5904;SDS011;2978;42.012;24.880;2023-03-13T09:21:53;4.97;;;3.13;;
5904;SDS011;2978;42.012;24.880;2023-03-13T09:24:19;4.23;;;3.50;;
5904;SDS011;2978;42.012;24.880;2023-03-13T09:26:44;4.47;;;3.30;;
5904;SDS011;2978;42.012;24.880;2023-03-13T09:29:10;4.43;;;3.20;;
5904;SDS011;2978;42.012;24.880;2023-03-13T09:31:35;3.90;;;3.47;;
5904;SDS011;2978;42.012;24.880;2023-03-13T09:34:02;5.03;;;3.57;;
5904;SDS011;2978;42.012;24.880;2023-03-13T09:36:28;6.00;;;3.30;;
5904;SDS011;2978;42.012;24.880;2023-03-13T09:38:54;4.50;;;3.30;;
5904;SDS011;2978;42.012;24.880;2023-03-13T09:41:23;3.40;;;2.77;;
5904;SDS011;2978;42.012;24.880;2023-03-13T09:44:12;3.60;;;3.30;;
5904;SDS011;2978;42.012;24.880;2023-03-13T09:52:24;4.43;;;2.50;;
5904;SDS011;2978;42.012;24.880;2023-03-13T09:55:10;4.27;;;3.03;;
5904;SDS011;2978;42.012;24.880;2023-03-13T10:00:21;3.57;;;3.27;;
5904;SDS011;2978;42.012;24.880;2023-03-13T10:02:54;5.93;;;3.50;;
5904;SDS011;2978;42.012;24.880;2023-03-13T10:05:28;4.30;;;2.80;;
5904;SDS011;2978;42.012;24.880;2023-03-13T10:08:15;7.23;;;3.50;;
5904;SDS011;2978;42.012;24.880;2023-03-13T10:11:02;3.47;;;2.90;;
5904;SDS011;2978;42.012;24.880;2023-03-13T10:13:34;3.33;;;2.43;;
5904;SDS011;2978;42.012;24.880;2023-03-13T10:16:10;4.47;;;2.90;;
5904;SDS011;2978;42.012;24.880;2023-03-13T10:18:47;3.60;;;2.70;;
5904;SDS011;2978;42.012;24.880;2023-03-13T10:21:22;5.67;;;3.20;;
5904;SDS011;2978;42.012;24.880;2023-03-13T10:26:54;4.10;;;2.70;;
5904;SDS011;2978;42.012;24.880;2023-03-13T10:29:24;3.90;;;2.80;;
5904;SDS011;2978;42.012;24.880;2023-03-13T10:32:04;5.37;;;2.90;;
5904;SDS011;2978;42.012;24.880;2023-03-13T10:34:45;3.47;;;3.17;;
5904;SDS011;2978;42.012;24.880;2023-03-13T10:37:13;3.43;;;2.87;;
5904;SDS011;2978;42.012;24.880;2023-03-13T10:39:40;2.77;;;2.50;;
5904;SDS011;2978;42.012;24.880;2023-03-13T10:42:10;4.97;;;2.10;;
5904;SDS011;2978;42.012;24.880;2023-03-13T10:44:43;3.03;;;2.43;;
5904;SDS011;2978;42.012;24.880;2023-03-13T10:47:10;3.70;;;2.80;;
5904;SDS011;2978;42.012;24.880;2023-03-13T10:49:45;4.63;;;2.93;;
5904;SDS011;2978;42.012;24.880;2023-03-13T10:55:13;3.80;;;2.60;;
5904;SDS011;2978;42.012;24.880;2023-03-13T10:57:42;3.67;;;2.77;;
5904;SDS011;2978;42.012;24.880;2023-03-13T11:02:46;3.20;;;2.90;;
5904;SDS011;2978;42.012;24.880;2023-03-13T11:07:50;3.80;;;2.73;;
5904;SDS011;2978;42.012;24.880;2023-03-13T11:12:44;3.57;;;2.77;;
5904;SDS011;2978;42.012;24.880;2023-03-13T11:18:23;3.80;;;3.23;;
5904;SDS011;2978;42.012;24.880;2023-03-13T11:21:12;6.47;;;3.13;;
5904;SDS011;2978;42.012;24.880;2023-03-13T11:23:49;2.37;;;2.17;;
5904;SDS011;2978;42.012;24.880;2023-03-13T11:29:02;3.40;;;2.57;;
5904;SDS011;2978;42.012;24.880;2023-03-13T11:32:01;4.93;;;2.63;;
5904;SDS011;2978;42.012;24.880;2023-03-13T11:34:30;3.67;;;2.90;;
5904;SDS011;2978;42.012;24.880;2023-03-13T12:05:58;2.87;;;2.20;;
5904;SDS011;2978;42.012;24.880;2023-03-13T12:08:41;3.20;;;2.30;;
5904;SDS011;2978;42.012;24.880;2023-03-13T12:11:21;2.93;;;2.73;;
5904;SDS011;2978;42.012;24.880;2023-03-13T12:13:59;2.43;;;2.20;;
5904;SDS011;2978;42.012;24.880;2023-03-13T12:16:36;1.97;;;1.80;;
5904;SDS011;2978;42.012;24.880;2023-03-13T12:19:14;2.90;;;2.30;;
5904;SDS011;2978;42.012;24.880;2023-03-13T12:21:46;2.50;;;2.03;;
5904;SDS011;2978;42.012;24.880;2023-03-13T12:40:38;2.07;;;1.93;;
5904;SDS011;2978;42.012;24.880;2023-03-13T12:43:13;2.80;;;2.47;;
5904;SDS011;2978;42.012;24.880;2023-03-13T12:59:29;2.93;;;2.17;;
5904;SDS011;2978;42.012;24.880;2023-03-13T13:01:59;2.40;;;2.20;;
5904;SDS011;2978;42.012;24.880;2023-03-13T13:04:29;2.53;;;1.73;;
5904;SDS011;2978;42.012;24.880;2023-03-13T13:10:24;3.40;;;2.77;;
5904;SDS011;2978;42.012;24.880;2023-03-13T13:15:59;5.50;;;2.57;;
5904;SDS011;2978;42.012;24.880;2023-03-13T13:18:29;5.10;;;2.70;;
5904;SDS011;2978;42.012;24.880;2023-03-13T13:21:18;3.10;;;2.80;;
5904;SDS011;2978;42.012;24.880;2023-03-13T13:23:44;2.30;;;2.10;;
5904;SDS011;2978;42.012;24.880;2023-03-13T13:28:57;3.00;;;2.33;;
5904;SDS011;2978;42.012;24.880;2023-03-13T13:36:55;3.60;;;2.80;;
5904;SDS011;2978;42.012;24.880;2023-03-13T13:45:01;3.90;;;2.50;;
5904;SDS011;2978;42.012;24.880;2023-03-13T13:47:29;2.87;;;2.57;;
5904;SDS011;2978;42.012;24.880;2023-03-13T13:49:56;3.10;;;2.40;;
5904;SDS011;2978;42.012;24.880;2023-03-13T13:52:42;2.73;;;2.53;;
5904;SDS011;2978;42.012;24.880;2023-03-13T13:58:19;7.53;;;2.90;;
5904;SDS011;2978;42.012;24.880;2023-03-13T14:00:55;2.67;;;2.10;;
5904;SDS011;2978;42.012;24.880;2023-03-13T14:03:25;3.40;;;2.50;;
5904;SDS011;2978;42.012;24.880;2023-03-13T14:05:55;2.53;;;2.33;;
5904;SDS011;2978;42.012;24.880;2023-03-13T14:08:29;6.93;;;3.00;;
5904;SDS011;2978;42.012;24.880;2023-03-13T14:20:37;3.47;;;2.57;;
5904;SDS011;2978;42.012;24.880;2023-03-13T14:23:08;2.90;;;2.23;;
5904;SDS011;2978;42.012;24.880;2023-03-13T14:25:42;3.60;;;2.40;;
5904;SDS011;2978;42.012;24.880;2023-03-13T14:28:19;2.80;;;2.50;;
5904;SDS011;2978;42.012;24.880;2023-03-13T14:31:01;2.67;;;2.47;;
5904;SDS011;2978;42.012;24.880;2023-03-13T14:33:26;2.70;;;2.50;;
5904;SDS011;2978;42.012;24.880;2023-03-13T14:35:52;2.40;;;2.03;;
5904;SDS011;2978;42.012;24.880;2023-03-13T14:38:21;3.40;;;3.10;;
5904;SDS011;2978;42.012;24.880;2023-03-13T14:40:49;7.60;;;5.87;;
5904;SDS011;2978;42.012;24.880;2023-03-13T14:46:17;12.87;;;11.57;;
5904;SDS011;2978;42.012;24.880;2023-03-13T14:48:53;4.73;;;3.60;;
5904;SDS011;2978;42.012;24.880;2023-03-13T14:51:25;5.77;;;4.00;;
5904;SDS011;2978;42.012;24.880;2023-03-13T14:56:28;2.90;;;2.53;;
5904;SDS011;2978;42.012;24.880;2023-03-13T15:07:20;2.60;;;2.30;;
5904;SDS011;2978;42.012;24.880;2023-03-13T15:09:46;5.53;;;4.20;;
5904;SDS011;2978;42.012;24.880;2023-03-13T15:12:28;6.07;;;2.90;;
5904;SDS011;2978;42.012;24.880;2023-03-13T15:14:55;3.80;;;2.97;;
5904;SDS011;2978;42.012;24.880;2023-03-13T15:17:23;8.93;;;3.30;;
5904;SDS011;2978;42.012;24.880;2023-03-13T15:19:51;7.40;;;4.63;;
5904;SDS011;2978;42.012;24.880;2023-03-13T15:22:20;9.20;;;4.00;;
5904;SDS011;2978;42.012;24.880;2023-03-13T15:24:50;7.93;;;5.10;;
5904;SDS011;2978;42.012;24.880;2023-03-13T15:27:16;5.67;;;3.90;;
5904;SDS011;2978;42.012;24.880;2023-03-13T15:33:01;6.47;;;3.97;;
5904;SDS011;2978;42.012;24.880;2023-03-13T15:35:27;6.37;;;4.63;;
5904;SDS011;2978;42.012;24.880;2023-03-13T15:37:55;11.37;;;5.33;;
5904;SDS011;2978;42.012;24.880;2023-03-13T15:40:21;8.77;;;5.87;;
5904;SDS011;2978;42.012;24.880;2023-03-13T15:42:48;9.87;;;5.90;;
5904;SDS011;2978;42.012;24.880;2023-03-13T15:45:14;5.83;;;4.83;;
5904;SDS011;2978;42.012;24.880;2023-03-13T15:47:39;6.63;;;5.50;;
5904;SDS011;2978;42.012;24.880;2023-03-13T15:50:05;9.33;;;4.60;;
5904;SDS011;2978;42.012;24.880;2023-03-13T15:52:38;11.20;;;5.20;;
5904;SDS011;2978;42.012;24.880;2023-03-13T15:55:19;5.60;;;4.40;;
5904;SDS011;2978;42.012;24.880;2023-03-13T15:57:45;7.30;;;4.77;;
5904;SDS011;2978;42.012;24.880;2023-03-13T16:00:23;7.67;;;5.10;;
5904;SDS011;2978;42.012;24.880;2023-03-13T16:02:50;7.80;;;5.37;;
5904;SDS011;2978;42.012;24.880;2023-03-13T16:05:16;12.30;;;7.47;;
5904;SDS011;2978;42.012;24.880;2023-03-13T16:07:41;10.07;;;6.80;;
5904;SDS011;2978;42.012;24.880;2023-03-13T16:10:15;11.30;;;7.27;;
5904;SDS011;2978;42.012;24.880;2023-03-13T16:12:43;12.67;;;7.00;;
5904;SDS011;2978;42.012;24.880;2023-03-13T16:15:08;10.47;;;7.27;;
5904;SDS011;2978;42.012;24.880;2023-03-13T16:17:34;15.60;;;8.00;;
5904;SDS011;2978;42.012;24.880;2023-03-13T16:20:00;13.40;;;8.23;;
5904;SDS011;2978;42.012;24.880;2023-03-13T16:22:25;10.23;;;5.60;;
5904;SDS011;2978;42.012;24.880;2023-03-13T16:24:51;7.07;;;5.50;;
5904;SDS011;2978;42.012;24.880;2023-03-13T16:27:17;6.00;;;3.80;;
5904;SDS011;2978;42.012;24.880;2023-03-13T16:29:44;6.50;;;3.83;;
5904;SDS011;2978;42.012;24.880;2023-03-13T16:32:10;5.80;;;4.27;;
5904;SDS011;2978;42.012;24.880;2023-03-13T16:34:40;8.30;;;4.77;;
5904;SDS011;2978;42.012;24.880;2023-03-13T16:37:12;9.37;;;4.70;;
5904;SDS011;2978;42.012;24.880;2023-03-13T16:39:38;8.73;;;5.60;;
5904;SDS011;2978;42.012;24.880;2023-03-13T16:42:03;14.60;;;6.17;;
5904;SDS011;2978;42.012;24.880;2023-03-13T16:44:29;9.73;;;6.40;;
5904;SDS011;2978;42.012;24.880;2023-03-13T16:46:54;7.57;;;5.60;;
5904;SDS011;2978;42.012;24.880;2023-03-13T16:49:20;7.77;;;4.70;;
5904;SDS011;2978;42.012;24.880;2023-03-13T16:51:45;5.47;;;3.60;;
5904;SDS011;2978;42.012;24.880;2023-03-13T16:54:11;5.60;;;3.80;;
5904;SDS011;2978;42.012;24.880;2023-03-13T16:56:40;7.23;;;4.23;;
5904;SDS011;2978;42.012;24.880;2023-03-13T16:59:11;7.67;;;4.53;;
5904;SDS011;2978;42.012;24.880;2023-03-13T17:01:38;7.17;;;5.27;;
5904;SDS011;2978;42.012;24.880;2023-03-13T17:04:03;6.60;;;4.70;;
5904;SDS011;2978;42.012;24.880;2023-03-13T17:06:33;16.13;;;6.90;;
5904;SDS011;2978;42.012;24.880;2023-03-13T17:09:00;11.17;;;7.23;;
5904;SDS011;2978;42.012;24.880;2023-03-13T17:11:27;12.20;;;8.00;;
5904;SDS011;2978;42.012;24.880;2023-03-13T17:13:53;13.33;;;8.40;;
5904;SDS011;2978;42.012;24.880;2023-03-13T17:16:20;12.87;;;7.40;;
5904;SDS011;2978;42.012;24.880;2023-03-13T17:18:46;10.80;;;5.40;;
5904;SDS011;2978;42.012;24.880;2023-03-13T17:21:23;10.33;;;5.93;;
5904;SDS011;2978;42.012;24.880;2023-03-13T17:23:50;16.07;;;9.37;;
5904;SDS011;2978;42.012;24.880;2023-03-13T17:26:18;22.40;;;11.83;;
5904;SDS011;2978;42.012;24.880;2023-03-13T17:28:46;12.87;;;7.83;;
5904;SDS011;2978;42.012;24.880;2023-03-13T17:31:12;6.03;;;3.93;;
5904;SDS011;2978;42.012;24.880;2023-03-13T17:33:38;8.73;;;4.80;;
5904;SDS011;2978;42.012;24.880;2023-03-13T17:36:15;10.93;;;6.97;;
5904;SDS011;2978;42.012;24.880;2023-03-13T17:38:43;12.30;;;7.50;;
5904;SDS011;2978;42.012;24.880;2023-03-13T17:41:10;10.57;;;6.53;;
5904;SDS011;2978;42.012;24.880;2023-03-13T17:43:37;13.10;;;8.53;;
5904;SDS011;2978;42.012;24.880;2023-03-13T17:46:07;12.97;;;6.83;;
5904;SDS011;2978;42.012;24.880;2023-03-13T17:48:38;11.50;;;5.80;;
5904;SDS011;2978;42.012;24.880;2023-03-13T17:51:04;9.43;;;6.10;;
5904;SDS011;2978;42.012;24.880;2023-03-13T17:53:29;7.33;;;4.80;;
5904;SDS011;2978;42.012;24.880;2023-03-13T17:55:55;5.27;;;3.73;;